createdAt,value
2022-12-24T00:01:22.203Z,98853.00
2022-12-24T00:03:50.191Z,98863.16
2022-12-24T00:06:21.191Z,98857.78
2022-12-24T00:08:48.853Z,98853.50
2022-12-24T00:11:16.352Z,98843.34
2022-12-24T00:13:43.885Z,98847.69
2022-12-24T00:16:11.525Z,98846.31
2022-12-24T00:18:45.538Z,98842.78
2022-12-24T00:21:14.980Z,98853.94
2022-12-24T00:23:45.799Z,98848.88
2022-12-24T00:26:14.595Z,98853.09
2022-12-24T00:28:42.118Z,98858.78
2022-12-24T00:31:14.959Z,98848.00
2022-12-24T00:33:43.084Z,98859.03
2022-12-24T00:36:10.674Z,98857.44
2022-12-24T00:38:39.146Z,98857.06
2022-12-24T00:41:25.138Z,98850.41
2022-12-24T00:44:06.051Z,98849.38
2022-12-24T00:46:35.182Z,98857.28
2022-12-24T00:49:04.009Z,98868.31
2022-12-24T00:51:32.109Z,98860.63
2022-12-24T00:53:59.882Z,98861.13
2022-12-24T00:56:27.537Z,98862.00
2022-12-24T00:58:55.560Z,98874.50
2022-12-24T01:01:24.319Z,98854.50
2022-12-24T01:03:52.503Z,98866.28
2022-12-24T01:06:22.973Z,98864.78
2022-12-24T01:08:51.724Z,98862.72
2022-12-24T01:11:19.576Z,98868.81
2022-12-24T01:13:47.099Z,98864.53
2022-12-24T01:16:18.201Z,98864.53
2022-12-24T01:18:46.187Z,98865.75
2022-12-24T01:21:13.931Z,98855.75
2022-12-24T01:23:41.651Z,98864.28
2022-12-24T01:26:14.837Z,98873.53
2022-12-24T01:28:44.975Z,98858.69
2022-12-24T01:31:18.498Z,98858.84
2022-12-24T01:33:47.296Z,98856.09
2022-12-24T01:36:15.126Z,98860.50
2022-12-24T01:38:42.777Z,98862.03
2022-12-24T01:41:41.091Z,98860.88
2022-12-24T01:44:22.311Z,98859.38
2022-12-24T01:47:15.453Z,98862.41
2022-12-24T01:49:48.027Z,98867.56
2022-12-24T01:52:22.670Z,98860.03
2022-12-24T01:54:54.021Z,98862.75
2022-12-24T01:57:44.382Z,98864.34
2022-12-24T02:00:15.256Z,98873.06
2022-12-24T02:02:46.843Z,98880.19
2022-12-24T02:05:41.820Z,98872.72
2022-12-24T02:08:09.570Z,98877.41
2022-12-24T02:10:37.072Z,98876.78
2022-12-24T02:13:05.623Z,98884.47
2022-12-24T02:16:05.326Z,98877.72
2022-12-24T02:18:50.520Z,98879.84
2022-12-24T02:21:36.192Z,98873.66
2022-12-24T02:24:40.301Z,98879.03
2022-12-24T02:27:29.737Z,98890.94
2022-12-24T02:30:00.748Z,98892.41
2022-12-24T02:32:52.887Z,98889.69
2022-12-24T02:35:28.951Z,98890.81
2022-12-24T02:38:06.592Z,98893.19
2022-12-24T02:40:39.804Z,98877.88
2022-12-24T02:43:15.287Z,98873.81
2022-12-24T02:45:55.229Z,98881.50
2022-12-24T02:48:27.964Z,98884.53
2022-12-24T02:51:13.606Z,98880.41
2022-12-24T02:53:41.426Z,98875.06
2022-12-24T02:56:20.659Z,98871.28
2022-12-24T02:59:13.148Z,98887.53
2022-12-24T03:02:06.649Z,98880.94
2022-12-24T03:04:56.429Z,98872.22
2022-12-24T03:07:38.940Z,98870.63
2022-12-24T03:10:12.625Z,98886.16
2022-12-24T03:12:45.255Z,98867.53
2022-12-24T03:15:16.253Z,98873.25
2022-12-24T03:17:46.868Z,98876.56
2022-12-24T03:20:20.270Z,98881.88
2022-12-24T03:22:48.211Z,98879.34
2022-12-24T03:25:16.709Z,98882.44
2022-12-24T03:27:45.110Z,98880.00
2022-12-24T03:30:15.700Z,98875.06
2022-12-24T03:32:43.463Z,98875.81
2022-12-24T03:35:11.675Z,98879.63
2022-12-24T03:37:39.350Z,98879.53
2022-12-24T03:40:08.511Z,98881.94
2022-12-24T03:42:36.093Z,98873.28
2022-12-24T03:45:04.401Z,98880.03
2022-12-24T03:47:34.160Z,98883.59
2022-12-24T03:50:01.743Z,98879.25
2022-12-24T03:52:30.762Z,98884.81
2022-12-24T03:54:58.411Z,98885.34
2022-12-24T03:57:25.856Z,98877.09
2022-12-24T03:59:53.470Z,98884.22
2022-12-24T04:02:21.109Z,98870.66
2022-12-24T04:04:48.766Z,98867.44
2022-12-24T04:07:16.370Z,98862.63
2022-12-24T04:09:43.856Z,98861.31
2022-12-24T04:12:11.409Z,98861.16
2022-12-24T04:14:38.845Z,98863.47
2022-12-24T04:17:06.576Z,98872.75
2022-12-24T04:19:34.095Z,98866.38
2022-12-24T04:22:01.807Z,98872.56
2022-12-24T04:24:29.453Z,98868.63
2022-12-24T04:26:56.915Z,98863.78
2022-12-24T04:29:24.545Z,98854.34
2022-12-24T04:31:52.122Z,98850.22
2022-12-24T04:34:19.721Z,98852.69
2022-12-24T04:36:47.403Z,98849.28
2022-12-24T04:39:15.020Z,98858.56
2022-12-24T04:41:42.579Z,98850.78
2022-12-24T04:44:10.667Z,98847.50
2022-12-24T04:46:38.338Z,98848.31
2022-12-24T04:49:05.946Z,98858.31
2022-12-24T04:51:33.594Z,98849.97
2022-12-24T04:54:01.133Z,98848.91
2022-12-24T04:56:32.017Z,98854.53
2022-12-24T04:59:00.909Z,98857.22
2022-12-24T05:01:32.854Z,98851.34
2022-12-24T05:04:00.782Z,98847.22
2022-12-24T05:06:31.882Z,98845.75
2022-12-24T05:09:00.331Z,98840.38
2022-12-24T05:11:28.847Z,98834.13
2022-12-24T05:13:56.646Z,98833.00
2022-12-24T05:16:24.453Z,98833.56
2022-12-24T05:18:52.639Z,98840.56
2022-12-24T05:21:24.303Z,98829.53
2022-12-24T05:24:12.253Z,98839.81
2022-12-24T05:26:56.103Z,98834.59
2022-12-24T05:29:24.161Z,98826.53
2022-12-24T05:31:51.697Z,98830.88
2022-12-24T05:34:19.218Z,98825.88
2022-12-24T05:36:46.865Z,98824.44
2022-12-24T05:39:20.596Z,98826.81
2022-12-24T05:41:48.201Z,98831.03
2022-12-24T05:44:16.454Z,98832.00
2022-12-24T05:46:45.016Z,98817.63
2022-12-24T05:49:13.180Z,98814.06
2022-12-24T05:51:41.530Z,98816.97
2022-12-24T05:54:10.184Z,98828.31
2022-12-24T05:56:37.832Z,98832.66
2022-12-24T05:59:05.530Z,98834.69
2022-12-24T06:01:33.149Z,98837.03
2022-12-24T06:04:00.777Z,98834.00
2022-12-24T06:06:28.892Z,98822.66
2022-12-24T06:08:56.820Z,98824.25
2022-12-24T06:11:27.102Z,98819.63
2022-12-24T06:13:56.038Z,98834.19
2022-12-24T06:16:25.478Z,98822.38
2022-12-24T06:18:53.552Z,98828.41
2022-12-24T06:21:21.181Z,98828.25
2022-12-24T06:23:48.973Z,98824.13
2022-12-24T06:26:19.759Z,98835.28
2022-12-24T06:28:50.164Z,98829.84
2022-12-24T06:31:20.549Z,98833.19
2022-12-24T06:33:48.879Z,98830.66
2022-12-24T06:36:22.640Z,98831.75
2022-12-24T06:38:51.031Z,98839.22
2022-12-24T06:41:19.636Z,98819.38
2022-12-24T06:43:49.387Z,98835.41
2022-12-24T06:46:18.100Z,98826.06
2022-12-24T06:48:48.623Z,98828.53
2022-12-24T06:51:20.066Z,98836.22
2022-12-24T06:53:54.790Z,98824.47
2022-12-24T06:56:23.383Z,98822.72
2022-12-24T06:58:51.294Z,98817.34
2022-12-24T07:01:20.986Z,98824.25
2022-12-24T07:03:48.939Z,98825.63
2022-12-24T07:06:24.862Z,98817.03
2022-12-24T07:08:52.770Z,98810.66
2022-12-24T07:11:21.256Z,98817.78
2022-12-24T07:13:49.493Z,98811.97
2022-12-24T07:16:17.818Z,98825.63
2022-12-24T07:18:45.579Z,98812.94
2022-12-24T07:21:13.072Z,98822.41
2022-12-24T07:23:40.710Z,98824.25
2022-12-24T07:26:08.573Z,98822.16
2022-12-24T07:28:36.255Z,98802.41
2022-12-24T07:31:03.829Z,98811.31
2022-12-24T07:33:31.593Z,98814.88
2022-12-24T07:36:04.380Z,98798.28
2022-12-24T07:38:33.233Z,98816.22
2022-12-24T07:41:01.105Z,98823.59
2022-12-24T07:43:29.067Z,98826.38
2022-12-24T07:45:58.134Z,98824.63
2022-12-24T07:48:27.482Z,98831.94
2022-12-24T07:50:55.700Z,98832.16
2022-12-24T07:53:24.444Z,98819.69
2022-12-24T07:55:52.081Z,98817.22
2022-12-24T07:58:23.326Z,98818.94
2022-12-24T08:00:57.205Z,98814.34
2022-12-24T08:03:24.964Z,98807.00
2022-12-24T08:05:55.529Z,98818.09
2022-12-24T08:08:23.077Z,98811.44
2022-12-24T08:10:51.040Z,98814.69
2022-12-24T08:13:19.003Z,98817.59
2022-12-24T08:15:46.532Z,98823.59
2022-12-24T08:18:14.120Z,98820.19
2022-12-24T08:20:42.060Z,98823.34
2022-12-24T08:23:09.828Z,98821.72
2022-12-24T08:25:37.812Z,98826.00
2022-12-24T08:28:05.952Z,98821.66
2022-12-24T08:30:34.039Z,98816.59
2022-12-24T08:33:02.555Z,98807.84
2022-12-24T08:35:30.188Z,98823.16
2022-12-24T08:37:57.857Z,98822.16
2022-12-24T08:40:25.577Z,98809.09
2022-12-24T08:42:53.207Z,98810.91
2022-12-24T08:45:22.206Z,98811.78
2022-12-24T08:47:49.838Z,98809.59
2022-12-24T08:50:17.426Z,98812.13
2022-12-24T08:52:44.893Z,98808.59
2022-12-24T08:55:14.549Z,98802.03
2022-12-24T08:57:42.021Z,98803.00
2022-12-24T09:00:12.263Z,98800.59
2022-12-24T09:02:40.032Z,98784.72
2022-12-24T09:05:08.019Z,98804.38
2022-12-24T09:07:37.218Z,98795.97
2022-12-24T09:10:05.652Z,98791.69
2022-12-24T09:12:33.239Z,98792.63
2022-12-24T09:15:03.868Z,98800.97
2022-12-24T09:17:32.082Z,98794.22
2022-12-24T09:19:59.569Z,98794.44
2022-12-24T09:22:27.264Z,98795.44
2022-12-24T09:24:57.706Z,98804.59
2022-12-24T09:27:25.304Z,98789.94
2022-12-24T09:29:52.963Z,98786.22
2022-12-24T09:32:20.615Z,98786.22
2022-12-24T09:34:48.424Z,98776.88
2022-12-24T09:37:16.604Z,98772.09
2022-12-24T09:39:44.274Z,98778.78
2022-12-24T09:42:46.511Z,98778.25
2022-12-24T09:45:23.251Z,98769.13
2022-12-24T09:47:55.850Z,98781.22
2022-12-24T09:50:32.737Z,98769.31
2022-12-24T09:53:04.963Z,98771.88
2022-12-24T09:55:46.204Z,98773.81
2022-12-24T09:58:24.919Z,98776.38
2022-12-24T10:00:53.831Z,98772.22
2022-12-24T10:03:21.487Z,98775.78
2022-12-24T10:06:11.082Z,98785.84
2022-12-24T10:09:04.773Z,98782.47
2022-12-24T10:11:52.864Z,98777.19
2022-12-24T10:14:26.080Z,98782.75
2022-12-24T10:16:53.466Z,98772.78
2022-12-24T10:19:40.368Z,98780.84
2022-12-24T10:22:35.630Z,98770.94
2022-12-24T10:25:12.644Z,98780.06
2022-12-24T10:27:40.658Z,98789.34
2022-12-24T10:30:35.060Z,98780.28
2022-12-24T10:33:02.995Z,98776.59
2022-12-24T10:35:37.652Z,98784.00
2022-12-24T10:38:05.248Z,98780.34
2022-12-24T10:40:40.199Z,98787.97
2022-12-24T10:43:17.017Z,98784.00
2022-12-24T10:45:51.453Z,98766.72
2022-12-24T10:48:29.365Z,98782.59
2022-12-24T10:51:04.672Z,98780.06
2022-12-24T10:53:52.831Z,98786.59
2022-12-24T10:56:21.447Z,98776.75
2022-12-24T10:58:55.771Z,98780.84
2022-12-24T11:01:44.921Z,98780.34
2022-12-24T11:04:18.220Z,98774.84
2022-12-24T11:07:01.070Z,98783.94
2022-12-24T11:09:34.128Z,98775.44
2022-12-24T11:12:08.932Z,98785.38
2022-12-24T11:14:39.514Z,98799.50
2022-12-24T11:17:07.358Z,98798.63
2022-12-24T11:19:40.249Z,98796.03
2022-12-24T11:22:18.407Z,98801.97
2022-12-24T11:24:50.059Z,98810.53
2022-12-24T11:27:47.400Z,98812.00
2022-12-24T11:30:16.258Z,98811.88
2022-12-24T11:32:49.807Z,98810.75
2022-12-24T11:35:23.771Z,98803.16
2022-12-24T11:38:00.491Z,98808.09
2022-12-24T11:40:35.827Z,98807.34
2022-12-24T11:43:09.586Z,98806.94
2022-12-24T11:45:49.485Z,98822.09
2022-12-24T11:48:34.870Z,98824.78
2022-12-24T11:51:07.781Z,98822.66
2022-12-24T11:54:07.422Z,98835.94
2022-12-24T11:56:43.308Z,98838.47
2022-12-24T11:59:35.946Z,98842.75
2022-12-24T12:02:25.240Z,98845.59
2022-12-24T12:05:29.877Z,98847.50
2022-12-24T12:08:10.824Z,98848.13
2022-12-24T12:10:41.252Z,98857.66
2022-12-24T12:13:19.327Z,98858.66
2022-12-24T12:16:13.068Z,98855.56
2022-12-24T12:18:47.145Z,98860.25
2022-12-24T12:21:21.310Z,98863.59
2022-12-24T12:23:57.791Z,98863.25
2022-12-24T12:26:28.977Z,98868.50
2022-12-24T12:28:59.181Z,98864.66
2022-12-24T12:32:00.796Z,98878.19
2022-12-24T12:34:39.256Z,98871.13
2022-12-24T12:37:25.128Z,98882.38
2022-12-24T12:39:52.636Z,98887.97
2022-12-24T12:42:20.002Z,98893.19
2022-12-24T12:45:06.271Z,98892.41
2022-12-24T12:48:04.418Z,98889.69
2022-12-24T12:50:59.384Z,98896.81
2022-12-24T12:53:37.418Z,98893.97
2022-12-24T12:56:24.053Z,98900.72
2022-12-24T12:59:19.331Z,98906.34
2022-12-24T13:02:22.055Z,98905.97
2022-12-24T13:05:03.095Z,98905.91
2022-12-24T13:08:12.093Z,98906.56
2022-12-24T13:11:16.044Z,98911.50
2022-12-24T13:14:09.072Z,98915.66
2022-12-24T13:17:10.618Z,98920.78
2022-12-24T13:19:40.824Z,98925.72
2022-12-24T13:22:21.442Z,98928.41
2022-12-24T13:24:52.636Z,98926.38
2022-12-24T13:27:25.307Z,98933.84
2022-12-24T13:29:54.074Z,98933.03
2022-12-24T13:32:21.476Z,98936.66
2022-12-24T13:34:58.026Z,98945.41
2022-12-24T13:37:31.448Z,98944.09
2022-12-24T13:40:08.422Z,98953.78
2022-12-24T13:43:01.483Z,98954.72
2022-12-24T13:45:29.294Z,98954.66
2022-12-24T13:47:56.825Z,98962.44
2022-12-24T13:50:48.711Z,98967.97
2022-12-24T13:53:28.475Z,98966.00
2022-12-24T13:55:59.611Z,98965.94
2022-12-24T13:58:27.209Z,98974.56
2022-12-24T14:01:25.020Z,98978.84
2022-12-24T14:04:00.008Z,98981.94
2022-12-24T14:06:38.093Z,98987.06
2022-12-24T14:09:12.804Z,98990.50
2022-12-24T14:11:58.915Z,99001.28
2022-12-24T14:14:28.264Z,98994.72
2022-12-24T14:17:00.389Z,98996.13
2022-12-24T14:19:47.867Z,98998.13
2022-12-24T14:22:18.024Z,99004.41
2022-12-24T14:25:12.875Z,99006.91
2022-12-24T14:27:46.384Z,99016.41
2022-12-24T14:30:34.329Z,99018.53
2022-12-24T14:33:01.894Z,99017.75
2022-12-24T14:35:38.353Z,99031.56
2022-12-24T14:38:18.843Z,99022.91
2022-12-24T14:40:49.131Z,99027.22
2022-12-24T14:43:28.596Z,99035.13
2022-12-24T14:46:24.591Z,99037.19
2022-12-24T14:48:56.609Z,99036.72
2022-12-24T14:51:40.153Z,99047.22
2022-12-24T14:54:10.507Z,99049.81
2022-12-24T14:56:38.260Z,99044.59
2022-12-24T14:59:20.110Z,99056.81
2022-12-24T15:01:47.843Z,99050.56
2022-12-24T15:04:18.259Z,99047.84
2022-12-24T15:06:53.158Z,99048.88
2022-12-24T15:09:24.787Z,99065.06
2022-12-24T15:11:56.040Z,99065.81
2022-12-24T15:14:25.813Z,99068.28
2022-12-24T15:17:04.190Z,99071.91
2022-12-24T15:19:36.112Z,99068.56
2022-12-24T15:22:07.882Z,99065.88
2022-12-24T15:24:43.776Z,99071.09
2022-12-24T15:27:21.896Z,99079.69
2022-12-24T15:29:52.443Z,99078.66
2022-12-24T15:32:21.447Z,99086.34
2022-12-24T15:34:54.452Z,99084.78
2022-12-24T15:37:38.314Z,99079.03
2022-12-24T15:40:21.927Z,99078.91
2022-12-24T15:42:49.842Z,99090.88
2022-12-24T15:45:30.824Z,99092.06
2022-12-24T15:48:08.788Z,99102.97
2022-12-24T15:50:45.862Z,99099.38
2022-12-24T15:53:30.619Z,99105.41
2022-12-24T15:56:01.074Z,99108.94
2022-12-24T15:58:40.734Z,99105.34
2022-12-24T16:01:14.427Z,99105.50
2022-12-24T16:03:56.640Z,99103.66
2022-12-24T16:06:24.908Z,99117.91
2022-12-24T16:08:52.451Z,99122.13
2022-12-24T16:11:25.380Z,99127.19
2022-12-24T16:14:18.954Z,99130.34
2022-12-24T16:16:52.919Z,99134.09
2022-12-24T16:19:25.374Z,99136.50
2022-12-24T16:21:58.943Z,99143.47
2022-12-24T16:24:29.772Z,99149.28
2022-12-24T16:26:58.110Z,99146.75
2022-12-24T16:29:27.730Z,99154.44
2022-12-24T16:31:57.773Z,99153.50
2022-12-24T16:34:30.699Z,99157.13
2022-12-24T16:36:59.272Z,99152.03
2022-12-24T16:39:32.837Z,99158.03
2022-12-24T16:42:21.266Z,99161.34
2022-12-24T16:44:52.196Z,99160.56
2022-12-24T16:47:27.128Z,99171.03
2022-12-24T16:49:54.800Z,99169.13
2022-12-24T16:52:29.024Z,99177.72
2022-12-24T16:54:57.279Z,99176.53
2022-12-24T16:57:24.823Z,99182.41
2022-12-24T16:59:52.928Z,99192.63
2022-12-24T17:02:22.772Z,99190.81
2022-12-24T17:04:50.688Z,99194.09
2022-12-24T17:07:20.156Z,99197.50
2022-12-24T17:09:47.698Z,99198.38
2022-12-24T17:12:15.485Z,99194.84
2022-12-24T17:14:43.112Z,99200.75
2022-12-24T17:17:24.458Z,99208.69
2022-12-24T17:19:51.960Z,99210.91
2022-12-24T17:22:20.194Z,99212.66
2022-12-24T17:24:47.733Z,99215.84
2022-12-24T17:27:15.347Z,99220.84
2022-12-24T17:29:45.210Z,99223.31
2022-12-24T17:32:12.745Z,99221.53
2022-12-24T17:34:40.519Z,99223.84
2022-12-24T17:37:08.035Z,99225.53
2022-12-24T17:39:35.683Z,99231.56
2022-12-24T17:42:03.231Z,99237.38
2022-12-24T17:44:30.963Z,99234.91
2022-12-24T17:46:58.777Z,99248.56
2022-12-24T17:49:26.481Z,99240.69
2022-12-24T17:51:54.149Z,99254.44
2022-12-24T17:54:21.614Z,99256.97
2022-12-24T17:56:49.334Z,99258.56
2022-12-24T17:59:16.788Z,99264.44
2022-12-24T18:01:44.402Z,99275.72
2022-12-24T18:04:11.940Z,99275.63
2022-12-24T18:06:45.597Z,99268.72
2022-12-24T18:09:16.560Z,99287.81
2022-12-24T18:11:44.332Z,99292.03
2022-12-24T18:14:14.190Z,99287.81
2022-12-24T18:16:42.548Z,99298.78
2022-12-24T18:19:12.019Z,99301.47
2022-12-24T18:21:40.594Z,99297.25
2022-12-24T18:24:09.323Z,99300.69
2022-12-24T18:26:36.985Z,99302.53
2022-12-24T18:29:04.870Z,99316.34
2022-12-24T18:31:34.156Z,99313.56
2022-12-24T18:34:04.512Z,99317.59
2022-12-24T18:36:32.476Z,99316.47
2022-12-24T18:39:00.432Z,99316.72
2022-12-24T18:41:30.365Z,99321.00
2022-12-24T18:43:58.732Z,99327.03
2022-12-24T18:46:31.853Z,99341.63
2022-12-24T18:49:01.344Z,99334.53
2022-12-24T18:51:32.240Z,99356.53
2022-12-24T18:54:00.052Z,99346.72
2022-12-24T18:56:27.827Z,99349.72
2022-12-24T18:59:00.078Z,99359.81
2022-12-24T19:01:34.779Z,99357.94
2022-12-24T19:04:02.651Z,99364.63
2022-12-24T19:06:30.233Z,99370.06
2022-12-24T19:08:59.538Z,99375.50
2022-12-24T19:11:33.023Z,99374.97
2022-12-24T19:14:01.879Z,99386.38
2022-12-24T19:16:31.760Z,99390.13
2022-12-24T19:18:59.486Z,99388.69
2022-12-24T19:21:27.209Z,99400.94
2022-12-24T19:23:54.826Z,99408.72
2022-12-24T19:26:22.784Z,99423.50
2022-12-24T19:28:50.710Z,99425.66
2022-12-24T19:31:23.675Z,99421.00
2022-12-24T19:33:54.230Z,99413.19
2022-12-24T19:36:27.287Z,99425.47
2022-12-24T19:38:56.172Z,99419.00
2022-12-24T19:41:26.545Z,99437.31
2022-12-24T19:43:56.614Z,99434.09
2022-12-24T19:46:27.728Z,99433.91
2022-12-24T19:48:57.723Z,99437.06
2022-12-24T19:51:27.197Z,99433.72
2022-12-24T19:53:56.969Z,99436.56
2022-12-24T19:56:26.488Z,99436.72
2022-12-24T19:58:57.476Z,99436.34
2022-12-24T20:01:28.073Z,99442.91
2022-12-24T20:03:56.203Z,99445.66
2022-12-24T20:06:26.495Z,99440.72
2022-12-24T20:08:59.796Z,99457.31
2022-12-24T20:11:27.633Z,99452.47
2022-12-24T20:14:00.310Z,99458.91
2022-12-24T20:16:29.605Z,99461.75
2022-12-24T20:19:07.641Z,99464.28
2022-12-24T20:21:35.378Z,99461.19
2022-12-24T20:24:02.946Z,99463.72
2022-12-24T20:26:30.800Z,99465.28
2022-12-24T20:28:58.545Z,99476.47
2022-12-24T20:31:28.111Z,99473.47
2022-12-24T20:33:59.824Z,99472.97
2022-12-24T20:36:28.977Z,99490.72
2022-12-24T20:38:57.498Z,99498.41
2022-12-24T20:41:27.051Z,99501.34
2022-12-24T20:43:55.061Z,99501.44
2022-12-24T20:46:24.355Z,99508.00
2022-12-24T20:48:52.328Z,99514.81
2022-12-24T20:51:25.051Z,99506.91
2022-12-24T20:53:55.390Z,99515.59
2022-12-24T20:56:23.296Z,99520.75
2022-12-24T20:58:51.732Z,99527.50
2022-12-24T21:01:24.529Z,99529.81
2022-12-24T21:03:56.910Z,99535.56
2022-12-24T21:06:25.198Z,99537.06
2022-12-24T21:08:53.899Z,99542.88
2022-12-24T21:11:40.541Z,99539.28
2022-12-24T21:14:08.465Z,99545.78
2022-12-24T21:16:38.359Z,99556.56
2022-12-24T21:19:08.621Z,99561.44
2022-12-24T21:21:36.534Z,99555.97
2022-12-24T21:24:06.188Z,99563.88
2022-12-24T21:26:34.748Z,99552.75
2022-12-24T21:29:04.809Z,99561.91
2022-12-24T21:31:32.965Z,99567.97
2022-12-24T21:34:00.820Z,99573.63
2022-12-24T21:36:28.536Z,99575.84
2022-12-24T21:38:56.194Z,99562.13
2022-12-24T21:41:24.552Z,99567.97
2022-12-24T21:43:52.121Z,99567.66
2022-12-24T21:46:23.277Z,99568.34
2022-12-24T21:49:11.702Z,99574.19
2022-12-24T21:51:40.272Z,99580.72
2022-12-24T21:54:26.137Z,99574.59
2022-12-24T21:57:14.230Z,99582.19
2022-12-24T21:59:42.627Z,99582.19
2022-12-24T22:02:15.056Z,99580.31
2022-12-24T22:04:43.679Z,99583.94
2022-12-24T22:07:45.283Z,99592.25
2022-12-24T22:10:33.069Z,99597.50
2022-12-24T22:13:03.726Z,99595.97
2022-12-24T22:15:31.285Z,99595.38
2022-12-24T22:17:58.774Z,99603.38
2022-12-24T22:20:28.826Z,99596.06
2022-12-24T22:22:56.669Z,99614.91
2022-12-24T22:25:24.105Z,99606.72
2022-12-24T22:27:51.856Z,99612.84
2022-12-24T22:30:19.604Z,99611.41
2022-12-24T22:32:47.707Z,99611.59
2022-12-24T22:35:15.912Z,99619.69
2022-12-24T22:37:43.426Z,99630.91
2022-12-24T22:40:11.717Z,99637.53
2022-12-24T22:42:41.136Z,99635.69
2022-12-24T22:45:10.026Z,99639.03
2022-12-24T22:47:37.557Z,99635.09
2022-12-24T22:50:05.943Z,99648.47
2022-12-24T22:52:35.010Z,99652.09
2022-12-24T22:55:03.116Z,99658.59
2022-12-24T22:57:31.131Z,99658.31
2022-12-24T22:59:58.806Z,99665.06
2022-12-24T23:02:28.838Z,99676.19
2022-12-24T23:04:56.858Z,99676.97
2022-12-24T23:07:24.913Z,99670.78
2022-12-24T23:09:52.383Z,99678.50
2022-12-24T23:12:39.764Z,99687.19
2022-12-24T23:15:08.045Z,99699.88
2022-12-24T23:17:35.633Z,99683.69
2022-12-24T23:20:03.959Z,99692.09
2022-12-24T23:22:31.603Z,99695.00
2022-12-24T23:24:59.108Z,99700.78
2022-12-24T23:27:26.618Z,99710.44
2022-12-24T23:29:54.155Z,99707.81
2022-12-24T23:32:22.964Z,99708.69
2022-12-24T23:34:50.470Z,99719.72
2022-12-24T23:37:17.901Z,99712.75
2022-12-24T23:39:45.409Z,99713.84
2022-12-24T23:42:12.912Z,99722.13
2022-12-24T23:44:40.473Z,99731.41
2022-12-24T23:47:07.925Z,99729.72
2022-12-24T23:49:36.800Z,99738.06
2022-12-24T23:52:04.359Z,99749.78
2022-12-24T23:54:31.796Z,99746.38
2022-12-24T23:56:59.308Z,99743.06
2022-12-24T23:59:26.925Z,99760.13
